Tres Hombres — 9LD2206 — position and weather

sailwx.info

Track history (hours):
 
Tides and Currents Weather Stations Pressure Air Temp Water Temp Dewpoint Dewpoint Depression Visibility Wind Speed Wind Dir Waves Ship Positions

Tres Hombres

Ship's website: http://www.zeilendehandelsvaart.nl/

Last reported at 2014-Jul-23 20:40 UTC. Time now 2014-Jul-23 21:45 UTC.
Position N 54°29' E 003°06'.

Length 32 m.

Type: Sailing vessel. MMSI: 667905000.

Date/timePositionNaut miles runAvg speedWind from/ knotsBaromVisibWave heightAir tempDewpointWater temp
2014-Jul-23 20:40N 54°29' E 003°06'65 5.2
2014-Jul-23 08:10N 53°34' E 004°06'66 1.8
2014-Jul-21 19:40N 52°30' E 004°31'15 5.7
2014-Jul-21 17:00N 52°30' E 004°06'14 8.1 230 / 151017.0 1.1 2.018.518.2
2014-Jul-21 15:12N 52°31' E 004°30'1 1.6
2014-Jul-21 14:22N 52°31' E 004°32'83 2.6
2014-Jul-20 06:53N 51°44' E 002°41'53 3.4
2014-Jul-19 15:28N 51°02' E 001°49'69 2.0
2014-Jul-18 05:30N 50°12' E 000°35'84 2.4
2014-Jul-16 18:00N 50°18' W 001°36'165 3.4 270 / 121022.0 0.517.016.716.6
2014-Jul-14 18:00N 48°30' W 004°48'19 3.6 240 / 101018.0 1.016.014.414.3
2014-Jul-14 12:33N 48°11' W 004°40'9 2.9
2014-Jul-14 09:33N 48°10' W 004°27'6 1.6
2014-Jul-14 05:33N 48°06' W 004°19'0 0.0
2014-Jul-14 04:33N 48°06' W 004°19'0 0.0
2014-Jul-14 03:33N 48°06' W 004°19'0 0.0
2014-Jul-14 00:34N 48°06' W 004°19'  
Track history (hours):
 
Tides and Currents Weather Stations Pressure Air Temp Water Temp Dewpoint Dewpoint Depression Visibility Wind Speed Wind Dir Waves Ship Positions

Tres Hombres

Ship's website: http://www.zeilendehandelsvaart.nl/

Last reported at 2014-Jul-23 20:40 UTC. Time now 2014-Jul-23 21:45 UTC.
Position N 54°29' E 003°06'.

Length 32 m.

Type: Sailing vessel. MMSI: 667905000.

Date/timePositionNaut miles runAvg speedWind from/ knotsBaromVisibWave heightAir tempDewpointWater temp
2014-Jul-23 20:40N 54°29' E 003°06'65 5.2
2014-Jul-23 08:10N 53°34' E 004°06'66 1.8
2014-Jul-21 19:40N 52°30' E 004°31'15 5.7
2014-Jul-21 17:00N 52°30' E 004°06'14 8.1 230 / 151017.0 1.1 2.018.518.2
2014-Jul-21 15:12N 52°31' E 004°30'1 1.6
2014-Jul-21 14:22N 52°31' E 004°32'83 2.6
2014-Jul-20 06:53N 51°44' E 002°41'53 3.4
2014-Jul-19 15:28N 51°02' E 001°49'69 2.0
2014-Jul-18 05:30N 50°12' E 000°35'84 2.4
2014-Jul-16 18:00N 50°18' W 001°36'165 3.4 270 / 121022.0 0.517.016.716.6
2014-Jul-14 18:00N 48°30' W 004°48'19 3.6 240 / 101018.0 1.016.014.414.3
2014-Jul-14 12:33N 48°11' W 004°40'9 2.9
2014-Jul-14 09:33N 48°10' W 004°27'6 1.6
2014-Jul-14 05:33N 48°06' W 004°19'0 0.0
2014-Jul-14 04:33N 48°06' W 004°19'0 0.0
2014-Jul-14 03:33N 48°06' W 004°19'0 0.0
2014-Jul-14 00:34N 48°06' W 004°19'  

Dump ship's entire track history